sensor_id;sensor_type;location;lat;lon;timestamp;P1;durP1;ratioP1;P2;durP2;ratioP2
43996;SDS011;34318;45.818;15.964;2023-02-28T00:00:12;11.15;;;6.43;;
43996;SDS011;34318;45.818;15.964;2023-02-28T00:02:40;12.90;;;6.65;;
43996;SDS011;34318;45.818;15.964;2023-02-28T00:05:08;6.45;;;5.85;;
43996;SDS011;34318;45.818;15.964;2023-02-28T00:07:35;9.10;;;5.68;;
43996;SDS011;34318;45.818;15.964;2023-02-28T00:10:06;10.57;;;5.90;;
43996;SDS011;34318;45.818;15.964;2023-02-28T00:12:34;7.85;;;5.88;;
43996;SDS011;34318;45.818;15.964;2023-02-28T00:15:02;6.43;;;5.50;;
43996;SDS011;34318;45.818;15.964;2023-02-28T00:17:32;7.03;;;5.55;;
43996;SDS011;34318;45.818;15.964;2023-02-28T00:19:59;7.75;;;5.47;;
43996;SDS011;34318;45.818;15.964;2023-02-28T00:22:38;6.70;;;5.85;;
43996;SDS011;34318;45.818;15.964;2023-02-28T00:25:06;6.43;;;5.78;;
43996;SDS011;34318;45.818;15.964;2023-02-28T00:27:34;8.20;;;6.03;;
43996;SDS011;34318;45.818;15.964;2023-02-28T00:30:01;5.78;;;5.28;;
43996;SDS011;34318;45.818;15.964;2023-02-28T00:32:29;7.13;;;5.15;;
43996;SDS011;34318;45.818;15.964;2023-02-28T00:34:56;6.82;;;6.05;;
43996;SDS011;34318;45.818;15.964;2023-02-28T00:37:23;7.07;;;5.68;;
43996;SDS011;34318;45.818;15.964;2023-02-28T00:39:51;8.63;;;5.40;;
43996;SDS011;34318;45.818;15.964;2023-02-28T00:42:18;8.40;;;6.43;;
43996;SDS011;34318;45.818;15.964;2023-02-28T00:44:45;5.93;;;5.38;;
43996;SDS011;34318;45.818;15.964;2023-02-28T00:47:12;7.18;;;5.30;;
43996;SDS011;34318;45.818;15.964;2023-02-28T00:49:40;5.93;;;5.32;;
43996;SDS011;34318;45.818;15.964;2023-02-28T00:52:07;6.65;;;5.53;;
43996;SDS011;34318;45.818;15.964;2023-02-28T00:54:38;5.63;;;5.10;;
43996;SDS011;34318;45.818;15.964;2023-02-28T00:57:05;6.03;;;5.43;;
43996;SDS011;34318;45.818;15.964;2023-02-28T00:59:32;6.15;;;5.55;;
43996;SDS011;34318;45.818;15.964;2023-02-28T01:01:59;5.53;;;4.90;;
43996;SDS011;34318;45.818;15.964;2023-02-28T01:04:26;6.15;;;5.55;;
43996;SDS011;34318;45.818;15.964;2023-02-28T01:06:54;6.88;;;5.22;;
43996;SDS011;34318;45.818;15.964;2023-02-28T01:09:21;6.05;;;5.35;;
43996;SDS011;34318;45.818;15.964;2023-02-28T01:11:48;6.93;;;5.70;;
43996;SDS011;34318;45.818;15.964;2023-02-28T01:14:16;6.68;;;5.97;;
43996;SDS011;34318;45.818;15.964;2023-02-28T01:16:43;6.35;;;5.70;;
43996;SDS011;34318;45.818;15.964;2023-02-28T01:19:11;6.03;;;5.43;;
43996;SDS011;34318;45.818;15.964;2023-02-28T01:21:38;6.80;;;5.72;;
43996;SDS011;34318;45.818;15.964;2023-02-28T01:24:05;8.48;;;5.60;;
43996;SDS011;34318;45.818;15.964;2023-02-28T01:26:33;5.68;;;5.18;;
43996;SDS011;34318;45.818;15.964;2023-02-28T01:29:01;7.68;;;5.57;;
43996;SDS011;34318;45.818;15.964;2023-02-28T01:31:30;6.65;;;5.63;;
43996;SDS011;34318;45.818;15.964;2023-02-28T01:33:58;6.53;;;5.10;;
43996;SDS011;34318;45.818;15.964;2023-02-28T01:36:26;6.85;;;5.60;;
43996;SDS011;34318;45.818;15.964;2023-02-28T01:38:53;7.07;;;5.25;;
43996;SDS011;34318;45.818;15.964;2023-02-28T01:41:25;6.55;;;5.40;;
43996;SDS011;34318;45.818;15.964;2023-02-28T01:43:55;6.78;;;6.05;;
43996;SDS011;34318;45.818;15.964;2023-02-28T01:46:22;8.63;;;5.40;;
43996;SDS011;34318;45.818;15.964;2023-02-28T01:48:54;6.07;;;4.90;;
43996;SDS011;34318;45.818;15.964;2023-02-28T01:51:23;5.60;;;5.00;;
43996;SDS011;34318;45.818;15.964;2023-02-28T01:53:53;6.35;;;5.32;;
43996;SDS011;34318;45.818;15.964;2023-02-28T01:56:23;6.13;;;5.35;;
43996;SDS011;34318;45.818;15.964;2023-02-28T01:58:51;7.22;;;4.70;;
43996;SDS011;34318;45.818;15.964;2023-02-28T02:01:19;5.75;;;4.95;;
43996;SDS011;34318;45.818;15.964;2023-02-28T02:03:54;5.57;;;5.03;;
43996;SDS011;34318;45.818;15.964;2023-02-28T02:06:23;6.78;;;4.53;;
43996;SDS011;34318;45.818;15.964;2023-02-28T02:08:51;5.57;;;5.00;;
43996;SDS011;34318;45.818;15.964;2023-02-28T02:11:21;5.70;;;5.18;;
43996;SDS011;34318;45.818;15.964;2023-02-28T02:19:08;7.75;;;4.95;;
43996;SDS011;34318;45.818;15.964;2023-02-28T02:27:23;7.18;;;4.55;;
43996;SDS011;34318;45.818;15.964;2023-02-28T02:37:51;6.30;;;5.38;;
43996;SDS011;34318;45.818;15.964;2023-02-28T02:40:20;5.90;;;4.88;;
43996;SDS011;34318;45.818;15.964;2023-02-28T02:43:02;5.38;;;4.88;;
43996;SDS011;34318;45.818;15.964;2023-02-28T02:45:40;5.63;;;4.57;;
43996;SDS011;34318;45.818;15.964;2023-02-28T02:48:10;7.30;;;5.13;;
43996;SDS011;34318;45.818;15.964;2023-02-28T02:50:41;5.25;;;4.78;;
43996;SDS011;34318;45.818;15.964;2023-02-28T02:53:09;5.57;;;5.07;;
43996;SDS011;34318;45.818;15.964;2023-02-28T02:55:39;5.68;;;5.10;;
43996;SDS011;34318;45.818;15.964;2023-02-28T02:58:08;4.60;;;4.20;;
43996;SDS011;34318;45.818;15.964;2023-02-28T03:00:38;5.28;;;4.78;;
43996;SDS011;34318;45.818;15.964;2023-02-28T03:03:07;5.28;;;4.65;;
43996;SDS011;34318;45.818;15.964;2023-02-28T03:05:39;6.03;;;5.00;;
43996;SDS011;34318;45.818;15.964;2023-02-28T03:08:08;4.90;;;4.50;;
43996;SDS011;34318;45.818;15.964;2023-02-28T03:10:37;5.10;;;4.60;;
43996;SDS011;34318;45.818;15.964;2023-02-28T03:18:15;7.63;;;4.78;;
43996;SDS011;34318;45.818;15.964;2023-02-28T03:20:52;5.78;;;5.10;;
43996;SDS011;34318;45.818;15.964;2023-02-28T03:23:23;7.88;;;4.88;;
43996;SDS011;34318;45.818;15.964;2023-02-28T03:25:59;5.70;;;4.97;;
43996;SDS011;34318;45.818;15.964;2023-02-28T03:28:30;4.95;;;4.55;;
43996;SDS011;34318;45.818;15.964;2023-02-28T03:31:00;7.18;;;5.20;;
43996;SDS011;34318;45.818;15.964;2023-02-28T03:33:32;4.53;;;4.13;;
43996;SDS011;34318;45.818;15.964;2023-02-28T03:36:10;5.20;;;4.78;;
43996;SDS011;34318;45.818;15.964;2023-02-28T03:38:41;5.28;;;4.78;;
43996;SDS011;34318;45.818;15.964;2023-02-28T03:41:21;6.20;;;4.80;;
43996;SDS011;34318;45.818;15.964;2023-02-28T03:44:00;5.82;;;4.90;;
43996;SDS011;34318;45.818;15.964;2023-02-28T03:46:31;7.10;;;5.10;;
43996;SDS011;34318;45.818;15.964;2023-02-28T03:49:04;6.10;;;4.85;;
43996;SDS011;34318;45.818;15.964;2023-02-28T03:51:32;5.80;;;5.20;;
43996;SDS011;34318;45.818;15.964;2023-02-28T03:54:02;5.88;;;5.10;;
43996;SDS011;34318;45.818;15.964;2023-02-28T03:56:33;8.93;;;5.32;;
43996;SDS011;34318;45.818;15.964;2023-02-28T03:59:06;6.05;;;5.45;;
43996;SDS011;34318;45.818;15.964;2023-02-28T04:01:38;5.18;;;4.68;;
43996;SDS011;34318;45.818;15.964;2023-02-28T04:04:08;5.00;;;4.55;;
43996;SDS011;34318;45.818;15.964;2023-02-28T04:06:35;5.30;;;4.72;;
43996;SDS011;34318;45.818;15.964;2023-02-28T04:09:04;7.43;;;4.82;;
43996;SDS011;34318;45.818;15.964;2023-02-28T04:11:33;6.07;;;5.03;;
43996;SDS011;34318;45.818;15.964;2023-02-28T04:14:04;5.30;;;4.80;;
43996;SDS011;34318;45.818;15.964;2023-02-28T04:16:31;5.38;;;4.88;;
43996;SDS011;34318;45.818;15.964;2023-02-28T04:19:02;8.15;;;4.57;;
43996;SDS011;34318;45.818;15.964;2023-02-28T04:22:04;5.05;;;4.65;;
43996;SDS011;34318;45.818;15.964;2023-02-28T04:24:25;5.93;;;5.38;;
43996;SDS011;34318;45.818;15.964;2023-02-28T04:26:54;5.03;;;4.50;;
43996;SDS011;34318;45.818;15.964;2023-02-28T04:29:23;5.15;;;4.55;;
43996;SDS011;34318;45.818;15.964;2023-02-28T04:31:51;5.38;;;4.80;;
43996;SDS011;34318;45.818;15.964;2023-02-28T04:34:20;5.85;;;4.72;;
43996;SDS011;34318;45.818;15.964;2023-02-28T04:36:47;4.72;;;4.32;;
43996;SDS011;34318;45.818;15.964;2023-02-28T04:39:36;5.72;;;5.18;;
43996;SDS011;34318;45.818;15.964;2023-02-28T04:42:04;5.47;;;4.97;;
43996;SDS011;34318;45.818;15.964;2023-02-28T04:44:31;5.28;;;4.80;;
43996;SDS011;34318;45.818;15.964;2023-02-28T04:46:58;5.18;;;4.65;;
43996;SDS011;34318;45.818;15.964;2023-02-28T04:49:25;4.90;;;4.38;;
43996;SDS011;34318;45.818;15.964;2023-02-28T04:51:53;6.18;;;4.70;;
43996;SDS011;34318;45.818;15.964;2023-02-28T04:54:20;5.03;;;4.53;;
43996;SDS011;34318;45.818;15.964;2023-02-28T04:56:47;5.32;;;4.82;;
43996;SDS011;34318;45.818;15.964;2023-02-28T04:59:16;5.25;;;4.75;;
43996;SDS011;34318;45.818;15.964;2023-02-28T05:01:47;5.30;;;4.80;;
43996;SDS011;34318;45.818;15.964;2023-02-28T05:04:14;4.95;;;4.43;;
43996;SDS011;34318;45.818;15.964;2023-02-28T05:06:42;5.28;;;4.50;;
43996;SDS011;34318;45.818;15.964;2023-02-28T05:09:09;5.68;;;5.07;;
43996;SDS011;34318;45.818;15.964;2023-02-28T05:11:39;5.78;;;4.57;;
43996;SDS011;34318;45.818;15.964;2023-02-28T05:14:09;5.20;;;4.80;;
43996;SDS011;34318;45.818;15.964;2023-02-28T05:16:37;6.18;;;5.57;;
43996;SDS011;34318;45.818;15.964;2023-02-28T05:19:04;7.68;;;5.35;;
43996;SDS011;34318;45.818;15.964;2023-02-28T05:21:33;4.82;;;4.43;;
43996;SDS011;34318;45.818;15.964;2023-02-28T05:24:01;4.93;;;4.53;;
43996;SDS011;34318;45.818;15.964;2023-02-28T05:26:29;5.25;;;4.50;;
43996;SDS011;34318;45.818;15.964;2023-02-28T05:28:57;6.20;;;4.80;;
43996;SDS011;34318;45.818;15.964;2023-02-28T05:31:24;6.03;;;4.60;;
43996;SDS011;34318;45.818;15.964;2023-02-28T05:33:51;4.95;;;4.55;;
43996;SDS011;34318;45.818;15.964;2023-02-28T05:36:19;5.25;;;4.75;;
43996;SDS011;34318;45.818;15.964;2023-02-28T05:38:49;6.18;;;4.90;;
43996;SDS011;34318;45.818;15.964;2023-02-28T05:41:17;4.97;;;4.57;;
43996;SDS011;34318;45.818;15.964;2023-02-28T05:43:45;4.93;;;4.53;;
43996;SDS011;34318;45.818;15.964;2023-02-28T05:46:13;5.57;;;5.07;;
43996;SDS011;34318;45.818;15.964;2023-02-28T05:48:42;5.95;;;5.40;;
43996;SDS011;34318;45.818;15.964;2023-02-28T05:51:10;5.30;;;4.80;;
43996;SDS011;34318;45.818;15.964;2023-02-28T05:53:37;5.13;;;4.45;;
43996;SDS011;34318;45.818;15.964;2023-02-28T05:56:04;4.93;;;4.53;;
43996;SDS011;34318;45.818;15.964;2023-02-28T05:58:34;5.57;;;5.00;;
43996;SDS011;34318;45.818;15.964;2023-02-28T06:01:19;4.70;;;4.20;;
43996;SDS011;34318;45.818;15.964;2023-02-28T06:03:47;5.75;;;4.90;;
43996;SDS011;34318;45.818;15.964;2023-02-28T06:06:14;5.63;;;4.28;;
43996;SDS011;34318;45.818;15.964;2023-02-28T06:08:42;5.97;;;4.95;;
43996;SDS011;34318;45.818;15.964;2023-02-28T06:11:10;7.80;;;4.95;;
43996;SDS011;34318;45.818;15.964;2023-02-28T06:13:38;6.93;;;5.72;;
43996;SDS011;34318;45.818;15.964;2023-02-28T06:16:05;12.30;;;5.28;;
43996;SDS011;34318;45.818;15.964;2023-02-28T06:18:33;5.60;;;5.07;;
43996;SDS011;34318;45.818;15.964;2023-02-28T06:21:00;7.55;;;4.85;;
43996;SDS011;34318;45.818;15.964;2023-02-28T06:23:27;6.53;;;4.97;;
43996;SDS011;34318;45.818;15.964;2023-02-28T06:25:54;10.85;;;5.43;;
43996;SDS011;34318;45.818;15.964;2023-02-28T06:28:24;5.95;;;4.80;;
43996;SDS011;34318;45.818;15.964;2023-02-28T06:30:52;10.80;;;4.88;;
43996;SDS011;34318;45.818;15.964;2023-02-28T06:33:19;8.02;;;5.20;;
43996;SDS011;34318;45.818;15.964;2023-02-28T06:35:47;10.13;;;5.80;;
43996;SDS011;34318;45.818;15.964;2023-02-28T06:38:16;6.75;;;5.43;;
43996;SDS011;34318;45.818;15.964;2023-02-28T06:40:44;8.48;;;5.28;;
43996;SDS011;34318;45.818;15.964;2023-02-28T06:43:11;6.82;;;5.72;;
43996;SDS011;34318;45.818;15.964;2023-02-28T06:45:43;12.95;;;5.65;;
43996;SDS011;34318;45.818;15.964;2023-02-28T06:48:10;7.80;;;6.05;;
43996;SDS011;34318;45.818;15.964;2023-02-28T06:50:37;9.32;;;6.13;;
43996;SDS011;34318;45.818;15.964;2023-02-28T06:53:05;9.73;;;6.85;;
43996;SDS011;34318;45.818;15.964;2023-02-28T06:55:32;14.43;;;8.18;;
43996;SDS011;34318;45.818;15.964;2023-02-28T06:57:59;10.15;;;7.75;;
43996;SDS011;34318;45.818;15.964;2023-02-28T07:00:26;11.20;;;8.52;;
43996;SDS011;34318;45.818;15.964;2023-02-28T07:02:53;11.63;;;7.63;;
43996;SDS011;34318;45.818;15.964;2023-02-28T07:05:21;9.88;;;8.25;;
43996;SDS011;34318;45.818;15.964;2023-02-28T07:07:48;11.15;;;9.13;;
43996;SDS011;34318;45.818;15.964;2023-02-28T07:10:18;15.32;;;8.80;;
43996;SDS011;34318;45.818;15.964;2023-02-28T07:12:45;13.73;;;9.40;;
43996;SDS011;34318;45.818;15.964;2023-02-28T07:15:13;14.27;;;7.78;;
43996;SDS011;34318;45.818;15.964;2023-02-28T07:17:40;14.85;;;8.43;;
43996;SDS011;34318;45.818;15.964;2023-02-28T07:20:07;11.75;;;7.95;;
43996;SDS011;34318;45.818;15.964;2023-02-28T07:22:34;18.85;;;7.35;;
43996;SDS011;34318;45.818;15.964;2023-02-28T07:25:02;15.43;;;6.90;;
43996;SDS011;34318;45.818;15.964;2023-02-28T07:27:29;10.80;;;6.90;;
43996;SDS011;34318;45.818;15.964;2023-02-28T07:29:56;8.50;;;7.22;;
43996;SDS011;34318;45.818;15.964;2023-02-28T07:32:23;10.52;;;7.68;;
43996;SDS011;34318;45.818;15.964;2023-02-28T07:34:50;17.20;;;8.10;;
43996;SDS011;34318;45.818;15.964;2023-02-28T07:37:18;15.18;;;8.07;;
43996;SDS011;34318;45.818;15.964;2023-02-28T07:39:45;10.73;;;8.02;;
43996;SDS011;34318;45.818;15.964;2023-02-28T07:42:12;16.80;;;10.73;;
43996;SDS011;34318;45.818;15.964;2023-02-28T07:44:39;14.32;;;10.55;;
43996;SDS011;34318;45.818;15.964;2023-02-28T07:47:07;12.35;;;10.35;;
43996;SDS011;34318;45.818;15.964;2023-02-28T07:49:38;17.55;;;9.63;;
43996;SDS011;34318;45.818;15.964;2023-02-28T07:52:06;19.85;;;9.85;;
43996;SDS011;34318;45.818;15.964;2023-02-28T07:54:33;17.30;;;9.18;;
43996;SDS011;34318;45.818;15.964;2023-02-28T07:57:00;16.02;;;8.95;;
43996;SDS011;34318;45.818;15.964;2023-02-28T07:59:29;14.43;;;9.88;;
43996;SDS011;34318;45.818;15.964;2023-02-28T08:01:57;12.75;;;8.80;;
43996;SDS011;34318;45.818;15.964;2023-02-28T08:04:25;13.40;;;9.27;;
43996;SDS011;34318;45.818;15.964;2023-02-28T08:06:52;18.55;;;8.93;;
43996;SDS011;34318;45.818;15.964;2023-02-28T08:09:20;12.68;;;8.00;;
43996;SDS011;34318;45.818;15.964;2023-02-28T08:11:47;13.93;;;8.98;;
43996;SDS011;34318;45.818;15.964;2023-02-28T08:14:14;17.98;;;9.32;;
43996;SDS011;34318;45.818;15.964;2023-02-28T08:16:41;13.55;;;7.78;;
43996;SDS011;34318;45.818;15.964;2023-02-28T08:19:09;15.23;;;8.25;;
43996;SDS011;34318;45.818;15.964;2023-02-28T08:21:36;13.98;;;8.13;;
43996;SDS011;34318;45.818;15.964;2023-02-28T08:24:03;8.90;;;7.28;;
43996;SDS011;34318;45.818;15.964;2023-02-28T08:26:30;13.20;;;8.23;;
43996;SDS011;34318;45.818;15.964;2023-02-28T08:28:58;13.20;;;8.18;;
43996;SDS011;34318;45.818;15.964;2023-02-28T08:31:26;10.90;;;7.55;;
43996;SDS011;34318;45.818;15.964;2023-02-28T08:33:54;13.30;;;8.02;;
43996;SDS011;34318;45.818;15.964;2023-02-28T08:36:25;10.18;;;7.60;;
43996;SDS011;34318;45.818;15.964;2023-02-28T08:38:55;12.45;;;8.02;;
43996;SDS011;34318;45.818;15.964;2023-02-28T08:41:23;10.90;;;8.13;;
43996;SDS011;34318;45.818;15.964;2023-02-28T08:43:50;11.82;;;8.35;;
43996;SDS011;34318;45.818;15.964;2023-02-28T08:46:17;10.93;;;7.88;;
43996;SDS011;34318;45.818;15.964;2023-02-28T08:48:44;9.00;;;8.10;;
43996;SDS011;34318;45.818;15.964;2023-02-28T08:51:13;13.00;;;8.05;;
43996;SDS011;34318;45.818;15.964;2023-02-28T08:53:42;11.88;;;7.53;;
43996;SDS011;34318;45.818;15.964;2023-02-28T08:56:10;14.60;;;7.55;;
43996;SDS011;34318;45.818;15.964;2023-02-28T08:58:38;11.20;;;7.50;;
43996;SDS011;34318;45.818;15.964;2023-02-28T09:01:27;10.40;;;7.20;;
43996;SDS011;34318;45.818;15.964;2023-02-28T09:03:55;7.95;;;7.15;;
43996;SDS011;34318;45.818;15.964;2023-02-28T09:06:24;9.20;;;7.60;;
43996;SDS011;34318;45.818;15.964;2023-02-28T09:08:52;11.65;;;7.47;;
43996;SDS011;34318;45.818;15.964;2023-02-28T09:11:20;8.25;;;7.45;;
43996;SDS011;34318;45.818;15.964;2023-02-28T09:13:47;9.60;;;7.32;;
43996;SDS011;34318;45.818;15.964;2023-02-28T09:16:14;10.88;;;6.65;;
43996;SDS011;34318;45.818;15.964;2023-02-28T09:18:43;7.28;;;6.57;;
43996;SDS011;34318;45.818;15.964;2023-02-28T09:21:14;10.85;;;7.03;;
43996;SDS011;34318;45.818;15.964;2023-02-28T09:23:42;9.63;;;7.05;;
43996;SDS011;34318;45.818;15.964;2023-02-28T09:26:23;11.13;;;7.38;;
43996;SDS011;34318;45.818;15.964;2023-02-28T09:28:51;10.18;;;7.40;;
43996;SDS011;34318;45.818;15.964;2023-02-28T09:31:20;11.30;;;7.20;;
43996;SDS011;34318;45.818;15.964;2023-02-28T09:33:48;11.80;;;7.40;;
43996;SDS011;34318;45.818;15.964;2023-02-28T09:36:15;7.53;;;6.28;;
43996;SDS011;34318;45.818;15.964;2023-02-28T09:38:43;12.15;;;10.68;;
43996;SDS011;34318;45.818;15.964;2023-02-28T09:41:14;7.85;;;7.15;;
43996;SDS011;34318;45.818;15.964;2023-02-28T09:43:46;7.57;;;6.85;;
43996;SDS011;34318;45.818;15.964;2023-02-28T09:46:36;8.73;;;7.93;;
43996;SDS011;34318;45.818;15.964;2023-02-28T09:49:05;8.85;;;7.18;;
43996;SDS011;34318;45.818;15.964;2023-02-28T09:54:27;8.05;;;6.75;;
43996;SDS011;34318;45.818;15.964;2023-02-28T09:57:38;9.50;;;6.72;;
43996;SDS011;34318;45.818;15.964;2023-02-28T10:09:49;7.93;;;6.93;;
43996;SDS011;34318;45.818;15.964;2023-02-28T10:12:18;10.20;;;6.68;;
43996;SDS011;34318;45.818;15.964;2023-02-28T10:14:47;10.70;;;6.05;;
43996;SDS011;34318;45.818;15.964;2023-02-28T10:17:24;8.07;;;6.80;;
43996;SDS011;34318;45.818;15.964;2023-02-28T10:19:58;9.30;;;5.78;;
43996;SDS011;34318;45.818;15.964;2023-02-28T10:22:38;62.40;;;21.77;;
43996;SDS011;34318;45.818;15.964;2023-02-28T10:25:18;106.30;;;37.22;;
43996;SDS011;34318;45.818;15.964;2023-02-28T10:27:46;79.45;;;32.08;;
43996;SDS011;34318;45.818;15.964;2023-02-28T10:30:13;63.88;;;27.55;;
43996;SDS011;34318;45.818;15.964;2023-02-28T10:32:42;78.35;;;27.90;;
43996;SDS011;34318;45.818;15.964;2023-02-28T10:35:15;68.97;;;25.83;;
43996;SDS011;34318;45.818;15.964;2023-02-28T10:37:44;58.28;;;24.10;;
43996;SDS011;34318;45.818;15.964;2023-02-28T10:45:24;47.55;;;21.80;;
43996;SDS011;34318;45.818;15.964;2023-02-28T10:50:36;56.22;;;23.40;;
43996;SDS011;34318;45.818;15.964;2023-02-28T10:53:10;52.22;;;24.38;;
43996;SDS011;34318;45.818;15.964;2023-02-28T10:55:42;51.92;;;21.60;;
43996;SDS011;34318;45.818;15.964;2023-02-28T10:58:20;57.20;;;22.92;;
43996;SDS011;34318;45.818;15.964;2023-02-28T11:00:48;42.03;;;20.75;;
43996;SDS011;34318;45.818;15.964;2023-02-28T11:03:23;46.70;;;18.85;;
43996;SDS011;34318;45.818;15.964;2023-02-28T11:05:50;38.30;;;19.50;;
43996;SDS011;34318;45.818;15.964;2023-02-28T11:08:18;33.80;;;17.33;;
43996;SDS011;34318;45.818;15.964;2023-02-28T11:10:55;38.22;;;17.65;;
43996;SDS011;34318;45.818;15.964;2023-02-28T11:13:27;35.88;;;17.48;;
43996;SDS011;34318;45.818;15.964;2023-02-28T11:15:56;35.22;;;16.60;;
43996;SDS011;34318;45.818;15.964;2023-02-28T11:18:27;30.52;;;15.43;;
43996;SDS011;34318;45.818;15.964;2023-02-28T11:20:56;43.72;;;14.82;;
43996;SDS011;34318;45.818;15.964;2023-02-28T11:23:25;29.75;;;13.30;;
43996;SDS011;34318;45.818;15.964;2023-02-28T11:25:54;28.75;;;14.25;;
43996;SDS011;34318;45.818;15.964;2023-02-28T11:28:28;27.67;;;13.90;;
43996;SDS011;34318;45.818;15.964;2023-02-28T11:33:29;23.83;;;13.15;;
43996;SDS011;34318;45.818;15.964;2023-02-28T11:35:58;30.10;;;12.88;;
43996;SDS011;34318;45.818;15.964;2023-02-28T11:38:26;26.92;;;12.80;;
43996;SDS011;34318;45.818;15.964;2023-02-28T11:51:02;26.17;;;12.50;;
43996;SDS011;34318;45.818;15.964;2023-02-28T11:56:10;22.73;;;13.93;;
43996;SDS011;34318;45.818;15.964;2023-02-28T11:58:41;21.88;;;13.45;;
43996;SDS011;34318;45.818;15.964;2023-02-28T12:01:32;29.10;;;13.93;;
43996;SDS011;34318;45.818;15.964;2023-02-28T12:04:04;24.42;;;13.52;;
43996;SDS011;34318;45.818;15.964;2023-02-28T12:06:45;27.40;;;12.27;;
43996;SDS011;34318;45.818;15.964;2023-02-28T12:09:20;20.30;;;13.15;;
43996;SDS011;34318;45.818;15.964;2023-02-28T12:11:58;21.13;;;12.48;;
43996;SDS011;34318;45.818;15.964;2023-02-28T12:19:47;17.52;;;11.13;;
43996;SDS011;34318;45.818;15.964;2023-02-28T12:28:09;22.45;;;12.73;;
43996;SDS011;34318;45.818;15.964;2023-02-28T12:30:37;23.20;;;12.10;;
43996;SDS011;34318;45.818;15.964;2023-02-28T12:33:12;27.27;;;12.07;;
43996;SDS011;34318;45.818;15.964;2023-02-28T12:35:43;25.08;;;11.35;;
43996;SDS011;34318;45.818;15.964;2023-02-28T12:38:17;19.38;;;11.50;;
43996;SDS011;34318;45.818;15.964;2023-02-28T12:41:02;21.63;;;11.35;;
43996;SDS011;34318;45.818;15.964;2023-02-28T12:43:31;21.80;;;10.65;;
43996;SDS011;34318;45.818;15.964;2023-02-28T12:46:06;24.63;;;11.82;;
43996;SDS011;34318;45.818;15.964;2023-02-28T12:48:53;18.57;;;9.47;;
43996;SDS011;34318;45.818;15.964;2023-02-28T12:51:23;20.85;;;10.98;;
43996;SDS011;34318;45.818;15.964;2023-02-28T12:53:57;20.17;;;11.75;;
43996;SDS011;34318;45.818;15.964;2023-02-28T12:58:58;23.15;;;12.30;;
43996;SDS011;34318;45.818;15.964;2023-02-28T13:09:41;20.98;;;10.57;;
43996;SDS011;34318;45.818;15.964;2023-02-28T13:12:18;18.40;;;11.10;;
43996;SDS011;34318;45.818;15.964;2023-02-28T13:14:46;18.88;;;10.52;;
43996;SDS011;34318;45.818;15.964;2023-02-28T13:17:17;18.08;;;10.85;;
43996;SDS011;34318;45.818;15.964;2023-02-28T13:24:54;19.65;;;10.45;;
43996;SDS011;34318;45.818;15.964;2023-02-28T13:27:35;19.98;;;10.23;;
43996;SDS011;34318;45.818;15.964;2023-02-28T13:30:59;16.63;;;10.00;;
43996;SDS011;34318;45.818;15.964;2023-02-28T13:35:47;24.42;;;10.73;;
43996;SDS011;34318;45.818;15.964;2023-02-28T13:38:21;15.05;;;9.20;;
43996;SDS011;34318;45.818;15.964;2023-02-28T13:40:49;16.60;;;10.07;;
43996;SDS011;34318;45.818;15.964;2023-02-28T13:43:16;16.20;;;9.70;;
43996;SDS011;34318;45.818;15.964;2023-02-28T13:46:10;16.23;;;9.82;;
43996;SDS011;34318;45.818;15.964;2023-02-28T13:48:38;19.27;;;10.68;;
43996;SDS011;34318;45.818;15.964;2023-02-28T13:56:21;13.75;;;9.48;;
43996;SDS011;34318;45.818;15.964;2023-02-28T14:06:48;18.30;;;10.38;;
43996;SDS011;34318;45.818;15.964;2023-02-28T14:09:27;13.68;;;8.75;;
43996;SDS011;34318;45.818;15.964;2023-02-28T14:11:56;18.30;;;9.68;;
43996;SDS011;34318;45.818;15.964;2023-02-28T14:17:03;16.10;;;9.43;;
43996;SDS011;34318;45.818;15.964;2023-02-28T14:19:32;13.30;;;9.23;;
43996;SDS011;34318;45.818;15.964;2023-02-28T14:22:05;15.73;;;10.38;;
43996;SDS011;34318;45.818;15.964;2023-02-28T14:38:29;18.40;;;8.55;;
43996;SDS011;34318;45.818;15.964;2023-02-28T14:40:58;19.23;;;9.38;;
43996;SDS011;34318;45.818;15.964;2023-02-28T14:43:27;13.23;;;8.02;;
43996;SDS011;34318;45.818;15.964;2023-02-28T14:45:59;17.83;;;9.20;;
43996;SDS011;34318;45.818;15.964;2023-02-28T14:48:27;18.48;;;9.45;;
43996;SDS011;34318;45.818;15.964;2023-02-28T14:50:58;21.67;;;9.18;;
43996;SDS011;34318;45.818;15.964;2023-02-28T14:53:26;11.57;;;8.65;;
43996;SDS011;34318;45.818;15.964;2023-02-28T14:55:54;16.48;;;8.50;;
43996;SDS011;34318;45.818;15.964;2023-02-28T14:58:29;18.10;;;9.35;;
43996;SDS011;34318;45.818;15.964;2023-02-28T15:01:01;13.15;;;9.38;;
43996;SDS011;34318;45.818;15.964;2023-02-28T15:05:57;14.38;;;8.93;;
43996;SDS011;34318;45.818;15.964;2023-02-28T15:08:25;13.27;;;8.45;;
43996;SDS011;34318;45.818;15.964;2023-02-28T15:10:56;15.27;;;8.75;;
43996;SDS011;34318;45.818;15.964;2023-02-28T15:13:26;14.80;;;8.75;;
43996;SDS011;34318;45.818;15.964;2023-02-28T15:16:01;14.57;;;8.65;;
43996;SDS011;34318;45.818;15.964;2023-02-28T15:20:58;15.27;;;8.88;;
43996;SDS011;34318;45.818;15.964;2023-02-28T15:23:29;11.98;;;8.63;;
43996;SDS011;34318;45.818;15.964;2023-02-28T15:25:57;13.77;;;8.60;;
43996;SDS011;34318;45.818;15.964;2023-02-28T15:28:24;10.88;;;8.05;;
43996;SDS011;34318;45.818;15.964;2023-02-28T15:30:55;12.50;;;8.77;;
43996;SDS011;34318;45.818;15.964;2023-02-28T15:33:24;11.18;;;8.57;;
43996;SDS011;34318;45.818;15.964;2023-02-28T15:36:02;15.30;;;8.52;;
43996;SDS011;34318;45.818;15.964;2023-02-28T15:38:33;13.40;;;8.27;;
43996;SDS011;34318;45.818;15.964;2023-02-28T15:41:00;10.68;;;7.60;;
43996;SDS011;34318;45.818;15.964;2023-02-28T15:43:31;10.63;;;7.75;;
43996;SDS011;34318;45.818;15.964;2023-02-28T15:46:02;9.88;;;7.15;;
43996;SDS011;34318;45.818;15.964;2023-02-28T15:48:31;11.52;;;7.75;;
43996;SDS011;34318;45.818;15.964;2023-02-28T15:51:14;12.18;;;9.90;;
43996;SDS011;34318;45.818;15.964;2023-02-28T15:53:45;17.10;;;10.80;;
43996;SDS011;34318;45.818;15.964;2023-02-28T15:56:27;14.63;;;10.02;;
43996;SDS011;34318;45.818;15.964;2023-02-28T15:58:55;14.95;;;8.75;;
43996;SDS011;34318;45.818;15.964;2023-02-28T16:01:36;9.88;;;8.05;;
43996;SDS011;34318;45.818;15.964;2023-02-28T16:04:13;15.38;;;8.68;;
43996;SDS011;34318;45.818;15.964;2023-02-28T16:06:41;13.82;;;9.40;;
43996;SDS011;34318;45.818;15.964;2023-02-28T16:09:10;15.52;;;9.35;;
43996;SDS011;34318;45.818;15.964;2023-02-28T16:11:41;17.33;;;9.52;;
43996;SDS011;34318;45.818;15.964;2023-02-28T16:14:11;12.98;;;9.20;;
43996;SDS011;34318;45.818;15.964;2023-02-28T16:16:44;13.98;;;9.65;;
43996;SDS011;34318;45.818;15.964;2023-02-28T16:19:12;11.77;;;8.75;;
43996;SDS011;34318;45.818;15.964;2023-02-28T16:21:39;11.45;;;8.80;;
43996;SDS011;34318;45.818;15.964;2023-02-28T16:24:06;11.52;;;9.52;;
43996;SDS011;34318;45.818;15.964;2023-02-28T16:26:34;13.73;;;9.20;;
43996;SDS011;34318;45.818;15.964;2023-02-28T16:29:03;16.05;;;9.50;;
43996;SDS011;34318;45.818;15.964;2023-02-28T16:31:30;12.65;;;8.82;;
43996;SDS011;34318;45.818;15.964;2023-02-28T16:33:59;14.75;;;10.02;;
43996;SDS011;34318;45.818;15.964;2023-02-28T16:36:26;16.38;;;10.20;;
43996;SDS011;34318;45.818;15.964;2023-02-28T16:38:54;14.57;;;10.30;;
43996;SDS011;34318;45.818;15.964;2023-02-28T16:41:25;16.02;;;10.32;;
43996;SDS011;34318;45.818;15.964;2023-02-28T16:43:54;18.90;;;10.40;;
43996;SDS011;34318;45.818;15.964;2023-02-28T16:46:25;12.35;;;9.48;;